createdAt,value
2018-07-21T00:01:07.452Z,1.00
2018-07-21T00:03:35.600Z,1.00
2018-07-21T00:06:03.787Z,1.00
2018-07-21T00:08:31.934Z,1.00
2018-07-21T00:11:00.087Z,1.00
2018-07-21T00:13:28.256Z,1.00
2018-07-21T00:15:56.442Z,1.00
2018-07-21T00:18:24.589Z,1.00
2018-07-21T00:20:52.797Z,1.00
2018-07-21T00:23:21.024Z,1.00
2018-07-21T00:25:49.210Z,1.00
2018-07-21T00:28:17.419Z,1.00
2018-07-21T00:30:45.636Z,1.00
2018-07-21T00:33:13.846Z,1.00
2018-07-21T00:35:42.035Z,1.00
2018-07-21T00:38:10.209Z,1.00
2018-07-21T00:40:38.359Z,1.00
2018-07-21T00:43:06.675Z,1.00
2018-07-21T00:45:34.927Z,1.00
2018-07-21T00:48:03.142Z,1.00
2018-07-21T00:50:31.284Z,1.00
2018-07-21T00:52:59.468Z,1.00
2018-07-21T00:55:27.698Z,1.00
2018-07-21T00:57:55.905Z,1.00
2018-07-21T01:00:24.124Z,1.00
2018-07-21T01:02:52.364Z,1.00
2018-07-21T01:05:20.623Z,1.00
2018-07-21T01:07:48.805Z,1.00
2018-07-21T01:10:16.998Z,1.00
2018-07-21T01:12:45.225Z,1.00
2018-07-21T01:15:13.387Z,1.00
2018-07-21T01:17:41.571Z,1.00
2018-07-21T01:20:09.759Z,1.00
2018-07-21T01:22:38.009Z,1.00
2018-07-21T01:25:06.912Z,1.00
2018-07-21T01:27:35.108Z,1.00
2018-07-21T01:30:03.323Z,1.00
2018-07-21T01:32:31.589Z,1.00
2018-07-21T01:34:59.778Z,1.00
2018-07-21T01:37:27.962Z,1.00
2018-07-21T01:39:56.148Z,1.00
2018-07-21T01:42:24.313Z,1.00
2018-07-21T01:44:52.533Z,1.00
2018-07-21T01:47:20.777Z,1.00
2018-07-21T01:49:48.934Z,1.00
2018-07-21T01:52:17.106Z,1.00
2018-07-21T01:54:45.276Z,1.00
2018-07-21T01:57:13.452Z,1.00
2018-07-21T01:59:41.654Z,1.00
2018-07-21T02:02:09.956Z,1.00
2018-07-21T02:04:38.160Z,1.00
2018-07-21T02:07:06.339Z,1.00
2018-07-21T02:09:34.505Z,1.00
2018-07-21T02:12:02.726Z,1.00
2018-07-21T02:14:30.937Z,1.00
2018-07-21T02:16:59.125Z,1.00
2018-07-21T02:19:28.141Z,1.00
2018-07-21T02:21:56.349Z,1.00
2018-07-21T02:24:24.570Z,1.00
2018-07-21T02:26:52.765Z,1.00
2018-07-21T02:29:21.068Z,1.00
2018-07-21T02:31:49.245Z,1.00
2018-07-21T02:34:17.442Z,1.00
2018-07-21T02:36:45.596Z,1.00
2018-07-21T02:39:13.769Z,1.00
2018-07-21T02:41:42.056Z,1.00
2018-07-21T02:44:10.192Z,1.00
2018-07-21T02:46:38.469Z,1.00
2018-07-21T02:49:06.635Z,1.00
2018-07-21T02:51:34.817Z,1.00
2018-07-21T02:54:03.196Z,1.00
2018-07-21T02:56:31.404Z,1.00
2018-07-21T02:58:59.594Z,1.00
2018-07-21T03:01:27.864Z,1.00
2018-07-21T03:03:56.066Z,1.00
2018-07-21T03:06:24.281Z,1.00
2018-07-21T03:08:52.431Z,1.00
2018-07-21T03:11:20.604Z,1.00
2018-07-21T03:13:48.779Z,1.00
2018-07-21T03:16:16.996Z,1.00
2018-07-21T03:18:45.192Z,1.00
2018-07-21T03:21:13.413Z,1.00
2018-07-21T03:23:41.596Z,1.00
2018-07-21T03:26:09.769Z,1.00
2018-07-21T03:28:37.967Z,1.00
2018-07-21T03:31:06.332Z,1.00
2018-07-21T03:33:34.519Z,2.00
2018-07-21T03:36:02.712Z,5.30
2018-07-21T03:38:30.928Z,6.10
2018-07-21T03:40:59.108Z,6.50
2018-07-21T03:43:27.329Z,7.60
2018-07-21T03:45:55.553Z,9.50
2018-07-21T03:48:23.779Z,10.10
2018-07-21T03:50:51.963Z,10.00
2018-07-21T03:53:20.143Z,9.10
2018-07-21T03:55:48.374Z,8.30
2018-07-21T03:58:16.571Z,8.50
2018-07-21T04:00:44.889Z,7.60
2018-07-21T04:03:13.063Z,7.20
2018-07-21T04:05:41.381Z,6.70
2018-07-21T04:08:09.557Z,4.30
2018-07-21T04:10:37.768Z,3.70
2018-07-21T04:13:06.005Z,3.70
2018-07-21T04:15:34.155Z,3.40
2018-07-21T04:18:02.353Z,3.60
2018-07-21T04:20:30.525Z,1.50
2018-07-21T04:22:58.708Z,1.00
2018-07-21T04:25:26.912Z,1.00
2018-07-21T04:27:55.098Z,1.00
2018-07-21T04:30:23.249Z,1.00
2018-07-21T04:32:51.400Z,1.00
2018-07-21T04:35:19.564Z,1.00
2018-07-21T04:37:47.755Z,1.00
2018-07-21T04:40:16.023Z,1.00
2018-07-21T04:42:44.313Z,1.00
2018-07-21T04:45:12.488Z,1.00
2018-07-21T04:47:40.672Z,1.00
2018-07-21T04:50:08.913Z,1.00
2018-07-21T04:52:37.108Z,1.00
2018-07-21T04:55:05.605Z,1.00
2018-07-21T04:57:33.756Z,1.00
2018-07-21T05:00:01.904Z,1.00
2018-07-21T05:02:30.192Z,1.00
2018-07-21T05:04:58.352Z,1.00
2018-07-21T05:07:26.581Z,1.00
2018-07-21T05:12:22.668Z,1.00
2018-07-21T05:14:50.860Z,1.00
2018-07-21T05:17:19.065Z,1.00
2018-07-21T05:19:47.237Z,1.00
2018-07-21T05:22:15.403Z,1.00
2018-07-21T05:24:43.849Z,1.00
2018-07-21T05:27:12.102Z,1.00
2018-07-21T05:29:40.254Z,1.00
2018-07-21T05:32:08.413Z,1.00
2018-07-21T05:34:36.580Z,1.00
2018-07-21T05:37:04.772Z,1.00
2018-07-21T05:39:32.947Z,1.00
2018-07-21T05:42:01.100Z,1.00
2018-07-21T05:44:29.370Z,1.00
2018-07-21T05:46:57.511Z,1.00
2018-07-21T05:49:25.677Z,1.00
2018-07-21T05:51:53.840Z,1.00
2018-07-21T05:54:22.185Z,1.00
2018-07-21T05:56:50.373Z,1.00
2018-07-21T05:59:18.635Z,1.00
2018-07-21T06:01:46.800Z,1.00
2018-07-21T06:04:15.026Z,1.00
2018-07-21T06:06:43.208Z,1.00
2018-07-21T06:09:11.860Z,1.00
2018-07-21T06:11:40.536Z,1.00
2018-07-21T06:14:08.701Z,1.00
2018-07-21T06:16:36.910Z,1.00
2018-07-21T06:19:05.118Z,1.00
2018-07-21T06:21:33.342Z,1.00
2018-07-21T06:26:29.556Z,1.00
2018-07-21T06:28:57.748Z,1.00
2018-07-21T06:31:25.919Z,1.00
2018-07-21T06:33:54.080Z,1.00
2018-07-21T06:36:22.711Z,1.00
2018-07-21T06:38:50.872Z,1.00
2018-07-21T06:41:19.057Z,1.00
2018-07-21T06:43:47.259Z,1.00
2018-07-21T06:46:15.548Z,1.00
2018-07-21T06:48:43.718Z,1.00
2018-07-21T06:51:11.927Z,1.00
2018-07-21T06:53:40.096Z,1.00
2018-07-21T06:56:08.296Z,1.00
2018-07-21T06:58:36.612Z,1.00
2018-07-21T07:01:05.192Z,1.00
2018-07-21T07:03:33.419Z,1.00
2018-07-21T07:08:29.842Z,1.00
2018-07-21T07:10:58.056Z,1.00
2018-07-21T07:13:26.361Z,1.00
2018-07-21T07:15:54.566Z,1.00
2018-07-21T07:18:22.933Z,1.00
2018-07-21T07:20:51.124Z,1.00
2018-07-21T07:23:20.096Z,1.00
2018-07-21T07:25:48.337Z,1.00
2018-07-21T07:28:16.493Z,1.00
2018-07-21T07:30:44.896Z,1.00
2018-07-21T07:33:13.264Z,1.00
2018-07-21T07:35:41.450Z,1.00
2018-07-21T07:38:09.614Z,1.00
2018-07-21T07:40:37.912Z,1.00
2018-07-21T07:43:06.613Z,1.00
2018-07-21T07:45:34.822Z,1.00
2018-07-21T07:48:03.104Z,1.00
2018-07-21T07:50:31.483Z,1.00
2018-07-21T07:52:59.886Z,1.00
2018-07-21T07:55:31.649Z,1.00
2018-07-21T07:58:00.788Z,1.00
2018-07-21T08:00:29.454Z,1.00
2018-07-21T08:02:57.961Z,1.00
2018-07-21T08:05:27.239Z,1.00
2018-07-21T08:07:55.454Z,1.00
2018-07-21T08:10:24.337Z,1.00
2018-07-21T08:12:53.091Z,1.00
2018-07-21T08:15:22.044Z,1.00
2018-07-21T08:17:51.204Z,1.00
2018-07-21T08:20:19.509Z,1.00
2018-07-21T08:22:47.821Z,1.00
2018-07-21T08:25:15.965Z,1.00
2018-07-21T08:27:44.240Z,1.00
2018-07-21T08:30:12.724Z,1.00
2018-07-21T08:32:41.633Z,1.00
2018-07-21T08:35:09.863Z,1.00
2018-07-21T08:37:38.561Z,1.00
2018-07-21T08:40:08.049Z,1.00
2018-07-21T08:42:36.269Z,1.00
2018-07-21T08:45:04.692Z,1.00
2018-07-21T08:47:32.947Z,1.00
2018-07-21T08:50:01.118Z,1.00
2018-07-21T08:52:29.428Z,1.00
2018-07-21T08:54:57.599Z,1.00
2018-07-21T08:57:25.818Z,1.00
2018-07-21T08:59:54.011Z,1.00
2018-07-21T09:02:22.181Z,1.00
2018-07-21T09:04:50.385Z,1.00
2018-07-21T09:07:18.569Z,1.00
2018-07-21T09:09:46.748Z,1.00
2018-07-21T09:12:14.944Z,1.00
2018-07-21T09:14:43.095Z,1.00
2018-07-21T09:17:11.419Z,1.00
2018-07-21T09:19:39.686Z,1.00
2018-07-21T09:22:07.861Z,1.00
2018-07-21T09:24:36.025Z,1.00
2018-07-21T09:27:04.235Z,1.00
2018-07-21T09:29:32.409Z,1.00
2018-07-21T09:32:00.633Z,1.00
2018-07-21T09:34:28.809Z,1.00
2018-07-21T09:36:56.973Z,1.00
2018-07-21T09:39:25.147Z,1.00
2018-07-21T09:41:53.329Z,1.00
2018-07-21T09:44:21.500Z,1.00
2018-07-21T09:46:49.693Z,1.00
2018-07-21T09:49:17.918Z,1.00
2018-07-21T09:51:46.049Z,1.00
2018-07-21T09:54:14.264Z,1.00
2018-07-21T09:56:42.472Z,1.00
2018-07-21T09:59:10.678Z,1.00
2018-07-21T10:01:38.875Z,1.00
2018-07-21T10:04:07.043Z,1.00
2018-07-21T10:06:35.260Z,1.00
2018-07-21T10:09:03.564Z,1.00
2018-07-21T10:11:31.716Z,1.00
2018-07-21T10:13:59.894Z,1.00
2018-07-21T10:16:28.089Z,1.00
2018-07-21T10:18:56.273Z,1.00
2018-07-21T10:21:24.624Z,1.00
2018-07-21T10:23:52.829Z,1.00
2018-07-21T10:26:26.426Z,1.40
2018-07-21T10:29:10.677Z,1.00
2018-07-21T10:31:39.468Z,2.00
2018-07-21T10:34:08.105Z,1.00
2018-07-21T10:36:36.576Z,1.00
2018-07-21T10:39:07.318Z,1.00
2018-07-21T10:41:35.520Z,1.00
2018-07-21T10:44:03.680Z,1.00
2018-07-21T10:46:31.951Z,4.70
2018-07-21T10:49:00.727Z,10.20
2018-07-21T10:51:28.900Z,11.90
2018-07-21T10:53:57.060Z,20.00
2018-07-21T10:56:25.269Z,26.80
2018-07-21T10:58:53.507Z,27.80
2018-07-21T11:01:21.669Z,28.00
2018-07-21T11:03:49.850Z,25.30
2018-07-21T11:06:18.002Z,26.20
2018-07-21T11:08:46.188Z,27.30
2018-07-21T11:11:14.396Z,31.00
2018-07-21T11:13:42.660Z,26.30
2018-07-21T11:16:10.897Z,27.50
2018-07-21T11:18:39.057Z,29.30
2018-07-21T11:21:07.444Z,29.20
2018-07-21T11:23:35.613Z,27.20
2018-07-21T11:26:03.771Z,26.70
2018-07-21T11:28:32.401Z,27.70
2018-07-21T11:31:00.577Z,26.60
2018-07-21T11:33:28.756Z,24.80
2018-07-21T11:35:57.266Z,27.80
2018-07-21T11:38:25.121Z,25.80
2018-07-21T11:40:53.293Z,29.70
2018-07-21T11:43:21.468Z,29.90
2018-07-21T11:45:49.662Z,37.80
2018-07-21T11:48:17.842Z,37.70
2018-07-21T11:50:46.060Z,35.70
2018-07-21T11:53:14.293Z,29.40
2018-07-21T11:55:42.533Z,28.70
2018-07-21T11:58:10.644Z,29.30
2018-07-21T12:00:38.792Z,33.70
2018-07-21T12:03:06.992Z,31.40
2018-07-21T12:05:35.177Z,38.50
2018-07-21T12:08:03.385Z,36.50
2018-07-21T12:10:32.796Z,36.10
2018-07-21T12:13:01.017Z,30.50
2018-07-21T12:15:29.215Z,31.40
2018-07-21T12:17:57.388Z,33.40
2018-07-21T12:20:25.640Z,35.30
2018-07-21T12:25:21.740Z,26.90
2018-07-21T12:27:49.924Z,22.60
2018-07-21T12:30:18.144Z,21.10
2018-07-21T12:32:46.388Z,24.30
2018-07-21T12:35:14.557Z,25.10
2018-07-21T12:37:42.768Z,19.40
2018-07-21T12:40:11.066Z,17.40
2018-07-21T12:42:39.166Z,17.60
2018-07-21T12:45:07.402Z,19.30
2018-07-21T12:47:35.576Z,24.90
2018-07-21T12:50:03.861Z,24.30
2018-07-21T12:52:32.152Z,23.10
2018-07-21T12:55:00.300Z,26.10
2018-07-21T12:57:28.465Z,24.80
2018-07-21T12:59:56.616Z,24.10
2018-07-21T13:02:24.793Z,22.40
2018-07-21T13:04:52.973Z,24.90
2018-07-21T13:07:21.293Z,24.70
2018-07-21T13:09:49.585Z,22.40
2018-07-21T13:12:17.681Z,22.80
2018-07-21T13:14:45.823Z,19.70
2018-07-21T13:17:13.973Z,16.70
2018-07-21T13:19:42.139Z,13.00
2018-07-21T13:22:10.282Z,14.40
2018-07-21T13:24:38.463Z,14.90
2018-07-21T13:27:06.622Z,13.20
2018-07-21T13:29:34.776Z,14.90
2018-07-21T13:32:02.996Z,13.60
2018-07-21T13:34:31.139Z,15.00
2018-07-21T13:36:59.321Z,15.00
2018-07-21T13:39:27.564Z,15.10
2018-07-21T13:41:55.719Z,14.70
2018-07-21T13:44:23.881Z,13.90
2018-07-21T13:46:52.071Z,11.80
2018-07-21T13:49:20.179Z,13.50
2018-07-21T13:51:48.427Z,12.20
2018-07-21T13:54:16.557Z,10.90
2018-07-21T13:56:44.788Z,10.90
2018-07-21T13:59:12.983Z,12.00
2018-07-21T14:01:41.178Z,10.00
2018-07-21T14:04:09.340Z,8.30
2018-07-21T14:06:37.624Z,9.30
2018-07-21T14:09:07.408Z,12.40
2018-07-21T14:11:35.655Z,8.90
2018-07-21T14:14:04.067Z,13.20
2018-07-21T14:16:32.419Z,10.70
2018-07-21T14:19:00.990Z,11.00
2018-07-21T14:21:29.164Z,5.80
2018-07-21T14:23:57.735Z,5.70
2018-07-21T14:26:26.000Z,4.20
2018-07-21T14:28:54.227Z,2.50
2018-07-21T14:31:22.501Z,1.00
2018-07-21T14:33:50.660Z,3.20
2018-07-21T14:36:18.918Z,2.50
2018-07-21T14:38:47.048Z,1.90
2018-07-21T14:41:15.219Z,1.60
2018-07-21T14:43:43.420Z,2.00
2018-07-21T14:46:11.707Z,1.50
2018-07-21T14:48:39.919Z,1.00
2018-07-21T14:51:08.131Z,2.00
2018-07-21T14:53:36.338Z,4.30
2018-07-21T14:56:04.484Z,3.10
2018-07-21T14:58:32.684Z,1.00
2018-07-21T15:01:00.857Z,1.70
2018-07-21T15:03:29.024Z,3.70
2018-07-21T15:05:57.196Z,3.00
2018-07-21T15:08:25.327Z,3.20
2018-07-21T15:10:53.480Z,3.70
2018-07-21T15:13:21.669Z,6.80
2018-07-21T15:15:49.847Z,5.70
2018-07-21T15:18:17.991Z,7.00
2018-07-21T15:20:46.129Z,6.30
2018-07-21T15:23:14.289Z,7.20
2018-07-21T15:25:42.480Z,6.60
2018-07-21T15:28:10.628Z,8.00
2018-07-21T15:30:38.792Z,7.90
2018-07-21T15:33:07.063Z,8.00
2018-07-21T15:35:35.203Z,8.50
2018-07-21T15:38:03.420Z,10.00
2018-07-21T15:40:31.649Z,9.50
2018-07-21T15:42:59.724Z,10.20
2018-07-21T15:45:27.885Z,10.60
2018-07-21T15:47:56.034Z,12.50
2018-07-21T15:50:24.187Z,11.50
2018-07-21T15:52:52.356Z,10.00
2018-07-21T15:55:20.521Z,11.20
2018-07-21T15:57:49.285Z,9.90
2018-07-21T16:00:17.441Z,10.90
2018-07-21T16:02:45.631Z,13.40
2018-07-21T16:05:13.780Z,13.10
2018-07-21T16:07:41.961Z,14.30
2018-07-21T16:10:10.137Z,13.70
2018-07-21T16:12:38.304Z,14.40
2018-07-21T16:15:07.009Z,15.50
2018-07-21T16:17:35.167Z,15.60
2018-07-21T16:20:03.436Z,17.30
2018-07-21T16:22:31.604Z,17.20
2018-07-21T16:24:59.794Z,15.40
2018-07-21T16:27:27.997Z,14.30
2018-07-21T16:29:56.269Z,15.60
2018-07-21T16:32:24.449Z,16.30
2018-07-21T16:34:52.630Z,15.20
2018-07-21T16:37:20.817Z,13.40
2018-07-21T16:39:48.976Z,12.80
2018-07-21T16:42:17.185Z,11.30
2018-07-21T16:44:45.321Z,14.00
2018-07-21T16:47:13.766Z,9.80
2018-07-21T16:49:41.940Z,5.30
2018-07-21T16:52:10.148Z,5.40
2018-07-21T16:54:38.309Z,3.90
2018-07-21T16:57:06.468Z,4.80
2018-07-21T16:59:34.637Z,4.20
2018-07-21T17:02:02.878Z,4.10
2018-07-21T17:04:31.071Z,4.70
2018-07-21T17:06:59.221Z,5.10
2018-07-21T17:09:27.390Z,4.30
2018-07-21T17:11:55.577Z,5.00
2018-07-21T17:14:23.760Z,2.50
2018-07-21T17:16:51.913Z,1.00
2018-07-21T17:21:48.024Z,1.00
2018-07-21T17:24:16.172Z,1.00
2018-07-21T17:26:44.345Z,3.70
2018-07-21T17:29:12.573Z,5.90
2018-07-21T17:31:40.722Z,6.60
2018-07-21T17:34:08.866Z,4.50
2018-07-21T17:36:37.045Z,4.90
2018-07-21T17:39:07.330Z,4.70
2018-07-21T17:41:35.557Z,2.40
2018-07-21T17:44:03.717Z,3.90
2018-07-21T17:46:31.920Z,5.20
2018-07-21T17:49:00.065Z,4.60
2018-07-21T17:51:28.235Z,2.30
2018-07-21T17:53:56.481Z,1.00
2018-07-21T17:56:24.615Z,1.00
2018-07-21T17:58:52.770Z,1.00
2018-07-21T18:01:20.957Z,1.00
2018-07-21T18:03:49.107Z,1.00
2018-07-21T18:06:17.284Z,1.00
2018-07-21T18:08:45.448Z,1.00
2018-07-21T18:11:13.618Z,1.00
2018-07-21T18:13:41.811Z,1.00
2018-07-21T18:16:10.000Z,1.00
2018-07-21T18:18:38.119Z,1.00
2018-07-21T18:21:06.349Z,1.00
2018-07-21T18:23:34.495Z,1.00
2018-07-21T18:26:02.679Z,1.00
2018-07-21T18:28:30.856Z,1.00
2018-07-21T18:30:58.996Z,1.00
2018-07-21T18:33:27.153Z,1.00
2018-07-21T18:35:55.345Z,1.00
2018-07-21T18:38:23.540Z,1.00
2018-07-21T18:40:51.703Z,1.00
2018-07-21T18:43:19.992Z,2.30
2018-07-21T18:45:48.180Z,3.90
2018-07-21T18:48:16.352Z,5.50
2018-07-21T18:50:44.539Z,7.50
2018-07-21T18:53:12.729Z,10.00
2018-07-21T18:55:40.959Z,11.10
2018-07-21T18:58:09.296Z,11.60
2018-07-21T19:00:37.560Z,14.10
2018-07-21T19:03:05.721Z,16.00
2018-07-21T19:05:33.884Z,18.30
2018-07-21T19:08:02.077Z,18.90
2018-07-21T19:10:30.228Z,21.60
2018-07-21T19:12:58.466Z,25.30
2018-07-21T19:15:32.147Z,27.20
2018-07-21T19:18:00.439Z,28.60
2018-07-21T19:20:34.017Z,29.60
2018-07-21T19:23:02.245Z,34.80
2018-07-21T19:25:35.792Z,37.80
2018-07-21T19:30:32.906Z,39.90
2018-07-21T19:33:01.622Z,40.10
2018-07-21T19:35:30.968Z,41.80
2018-07-21T19:37:59.230Z,44.00
2018-07-21T19:40:27.553Z,44.00
2018-07-21T19:42:55.815Z,44.60
2018-07-21T19:45:24.046Z,45.00
2018-07-21T19:47:52.442Z,45.20
2018-07-21T19:50:20.773Z,47.70
2018-07-21T19:52:49.049Z,48.70
2018-07-21T19:55:17.332Z,43.50
2018-07-21T19:57:45.660Z,44.00
2018-07-21T20:00:13.890Z,44.00
2018-07-21T20:02:42.156Z,53.00
2018-07-21T20:05:10.464Z,55.30
2018-07-21T20:07:38.645Z,58.90
2018-07-21T20:10:06.857Z,60.80
2018-07-21T20:12:35.268Z,61.40
2018-07-21T20:15:03.506Z,61.00
2018-07-21T20:17:31.786Z,53.00
2018-07-21T20:19:59.928Z,53.70
2018-07-21T20:22:28.272Z,52.60
2018-07-21T20:24:56.539Z,53.60
2018-07-21T20:27:24.715Z,53.60
2018-07-21T20:29:53.024Z,50.80
2018-07-21T20:32:21.244Z,52.60
2018-07-21T20:34:49.463Z,54.40
2018-07-21T20:37:17.684Z,54.40
2018-07-21T20:39:46.012Z,53.70
2018-07-21T20:42:14.266Z,52.20
2018-07-21T20:44:42.444Z,50.60
2018-07-21T20:47:10.684Z,53.30
2018-07-21T20:49:38.955Z,56.00
2018-07-21T20:52:07.281Z,55.30
2018-07-21T20:54:35.550Z,51.40
2018-07-21T20:57:03.746Z,58.40
2018-07-21T21:01:59.860Z,65.30
2018-07-21T21:04:28.100Z,65.80
2018-07-21T21:06:56.486Z,64.40
2018-07-21T21:09:24.675Z,64.70
2018-07-21T21:11:52.864Z,66.50
2018-07-21T21:14:21.045Z,66.00
2018-07-21T21:16:49.225Z,67.70
2018-07-21T21:19:17.434Z,67.90
2018-07-21T21:21:45.673Z,67.70
2018-07-21T21:24:13.917Z,66.30
2018-07-21T21:26:42.077Z,63.60
2018-07-21T21:29:10.288Z,64.60
2018-07-21T21:31:38.464Z,65.00
2018-07-21T21:34:06.859Z,66.40
2018-07-21T21:36:35.033Z,68.90
2018-07-21T21:39:03.296Z,67.60
2018-07-21T21:41:31.556Z,67.30
2018-07-21T21:43:59.747Z,68.40
2018-07-21T21:46:27.949Z,67.50
2018-07-21T21:48:56.272Z,67.60
2018-07-21T21:51:24.513Z,66.10
2018-07-21T21:53:52.687Z,66.80
2018-07-21T21:56:20.942Z,66.50
2018-07-21T21:58:49.220Z,66.10
2018-07-21T22:01:17.536Z,64.50
2018-07-21T22:03:45.922Z,63.30
2018-07-21T22:06:14.278Z,64.60
2018-07-21T22:08:42.549Z,65.00
2018-07-21T22:11:10.767Z,67.60
2018-07-21T22:13:38.961Z,68.30
2018-07-21T22:18:35.161Z,72.20
2018-07-21T22:21:03.440Z,73.70
2018-07-21T22:23:33.044Z,73.20
2018-07-21T22:26:01.276Z,67.10
2018-07-21T22:28:29.686Z,61.10
2018-07-21T22:30:58.293Z,64.70
2018-07-21T22:33:26.551Z,64.50
2018-07-21T22:35:54.804Z,60.20
2018-07-21T22:38:23.034Z,63.30
2018-07-21T22:40:51.328Z,62.10
2018-07-21T22:43:19.559Z,70.50
2018-07-21T22:45:47.742Z,70.70
2018-07-21T22:48:16.004Z,71.40
2018-07-21T22:50:44.493Z,76.70
2018-07-21T22:53:12.696Z,77.30
2018-07-21T22:55:40.903Z,78.70
2018-07-21T23:00:42.743Z,85.60
2018-07-21T23:03:10.924Z,82.50
2018-07-21T23:05:39.103Z,85.40
2018-07-21T23:08:07.299Z,90.20
2018-07-21T23:10:35.551Z,90.50
2018-07-21T23:13:03.788Z,93.10
2018-07-21T23:15:32.000Z,92.70
2018-07-21T23:18:00.397Z,93.30
2018-07-21T23:20:28.590Z,96.40
2018-07-21T23:22:56.817Z,99.40
2018-07-21T23:25:25.018Z,99.90
2018-07-21T23:27:53.191Z,99.90
2018-07-21T23:30:21.388Z,99.90
2018-07-21T23:32:49.588Z,99.90
2018-07-21T23:35:17.830Z,99.90
2018-07-21T23:37:46.015Z,99.90
2018-07-21T23:40:14.329Z,99.90
2018-07-21T23:42:42.619Z,99.90
2018-07-21T23:45:10.820Z,99.90
2018-07-21T23:47:39.324Z,97.80
2018-07-21T23:50:07.712Z,95.10
2018-07-21T23:52:35.899Z,94.20
2018-07-21T23:55:05.363Z,92.70
2018-07-21T23:57:33.569Z,92.30
